ZKJEE NZGM-NZHK

Flight info

Callsign ZKJEE
Flight time 0h 8m
Altitude 6000
Route EKVIL DCT MAKOS
Aircraft DHC6/L-SDFGR/C

Departure

Time 2026-04-15 03:11
Airport Greymouth Airport (NZGM)

Arrival

Time 2026-04-15 03:20
Airport Hokitika Airfield (NZHK)
Time Latitude Longitude Altitude Speed Heading
2026-04-15 03:06 -42.45875 171.19312 24 ft 0 kts 212°
2026-04-15 03:11 -42.46099 171.19122 25 ft 84 kts 212°
2026-04-15 03:11 -42.46750 171.18572 118 ft 122 kts 212°
2026-04-15 03:11 -42.47466 171.17967 470 ft 121 kts 212°
2026-04-15 03:11 -42.48217 171.17331 804 ft 131 kts 212°
2026-04-15 03:12 -42.48986 171.16622 1170 ft 137 kts 213°
2026-04-15 03:12 -42.49819 171.15954 1530 ft 142 kts 210°
2026-04-15 03:12 -42.50698 171.15277 1892 ft 145 kts 210°
2026-04-15 03:12 -42.51575 171.14586 2245 ft 147 kts 210°
2026-04-15 03:13 -42.52457 171.13868 2598 ft 149 kts 211°
2026-04-15 03:13 -42.53320 171.13181 2995 ft 142 kts 216°
2026-04-15 03:13 -42.54154 171.12510 3321 ft 142 kts 212°
2026-04-15 03:13 -42.55181 171.12541 3669 ft 156 kts 170°
2026-04-15 03:14 -42.56175 171.13240 3920 ft 168 kts 158°
2026-04-15 03:14 -42.57194 171.14136 3995 ft 178 kts 155°
2026-04-15 03:14 -42.58247 171.15093 4009 ft 184 kts 154°
2026-04-15 03:14 -42.59311 171.16058 4003 ft 187 kts 154°
2026-04-15 03:15 -42.60405 171.17027 4002 ft 188 kts 156°
2026-04-15 03:15 -42.61573 171.17754 3917 ft 181 kts 178°
2026-04-15 03:15 -42.62690 171.17444 3661 ft 156 kts 218°
2026-04-15 03:15 -42.63262 171.16327 3482 ft 140 kts 250°
2026-04-15 03:16 -42.63563 171.15072 3281 ft 137 kts 252°
2026-04-15 03:16 -42.63891 171.13888 3084 ft 135 kts 248°
2026-04-15 03:16 -42.64315 171.12752 2887 ft 134 kts 242°
2026-04-15 03:16 -42.64808 171.11674 2693 ft 134 kts 239°
2026-04-15 03:17 -42.65319 171.10625 2490 ft 134 kts 238°
2026-04-15 03:17 -42.65826 171.09575 2292 ft 134 kts 239°
2026-04-15 03:17 -42.66347 171.08478 2062 ft 140 kts 238°
2026-04-15 03:17 -42.66893 171.07393 1880 ft 142 kts 237°
2026-04-15 03:18 -42.67459 171.06285 1685 ft 143 kts 236°
2026-04-15 03:18 -42.68024 171.05174 1485 ft 143 kts 236°
2026-04-15 03:18 -42.68591 171.04055 1287 ft 142 kts 238°
2026-04-15 03:18 -42.69118 171.03010 1112 ft 129 kts 237°
2026-04-15 03:19 -42.69605 171.02033 894 ft 123 kts 237°
2026-04-15 03:19 -42.70082 171.01065 688 ft 119 kts 236°
2026-04-15 03:19 -42.70492 171.00117 466 ft 118 kts 243°
2026-04-15 03:19 -42.70827 170.99136 190 ft 114 kts 237°
2026-04-15 03:20 -42.71202 170.98348 156 ft 82 kts 234°
2026-04-15 03:20 -42.71360 170.97941 155 ft 4 kts 48°
2026-04-15 03:20 -42.71363 170.97936 155 ft 0 kts 48°